| ID | Machine | Gebeurtenis | Tijd | Uren | Service | Status | USB ID | |
|---|---|---|---|---|---|---|---|---|
| 5568 | 60-053XA-S5 | Fuel Monitor Event Start Fill 98% | 21-08-2024 08:21:41 | 639 | - | Niet ingesteld | 25A2A75249A | |
| 5567 | 60-053XA-S5 | Fuel Monitor Event Start Fill 98% | 21-08-2024 08:20:37 | 639 | - | Niet ingesteld | 25A2A75249A | |
| 5569 | 200-045 AS | Generator Over Current Warning | 21-08-2024 08:20:27 | 677 | - | Niet ingesteld | 6F2A305A15 | |
| 5566 | 60-053XA-S5 | Fuel Monitor Event Start Fill 98% | 21-08-2024 08:19:25 | 639 | - | Niet ingesteld | 25A2A75249A | |
| 5565 | 100-058XAB-S5 | Power Deur Open Warning | 21-08-2024 08:17:48 | 643 | - | Niet ingesteld | 25A2A752A7F | |
| 5564 | 60-053XA-S5 | Fuel Monitor Event Start Fill 98% | 21-08-2024 08:16:30 | 639 | - | Niet ingesteld | 25A2A75249A | |
| 5562 | 60-053XA-S5 | Fuel Monitor Event Start Fill 98% | 21-08-2024 08:10:22 | 639 | - | Niet ingesteld | 25A2A75249A | |
| 5563 | 60-053XA-S5 | Fuel Monitor Event Start Fill 98% | 21-08-2024 08:10:05 | 639 | - | Niet ingesteld | 25A2A75249A | |
| 5561 | 60-053XA-S5 | Fuel Monitor Event Start Fill 98% | 21-08-2024 08:08:14 | 639 | - | Niet ingesteld | 25A2A75249A | |
| 5559 | 60-053XA-S5 | Fuel Monitor Event Start Fill 98% | 21-08-2024 07:58:55 | 639 | - | Niet ingesteld | 25A2A75249A | |
| 5560 | 60-053XA-S5 | Engine Stopped | 21-08-2024 07:58:46 | 639 | - | Niet ingesteld | 25A2A75249A | |
| 5558 | 60-053XA-S5 | Fuel Monitor Event Start Fill 98% | 21-08-2024 07:57:33 | 639 | - | Niet ingesteld | 25A2A75249A | |
| 5556 | 200-033XAS | Engine Stopped | 21-08-2024 07:51:51 | 7419 | - | Niet ingesteld | 6E2C531A6B | |
| 5557 | 100-064XASB-S5 | Engine Start | 21-08-2024 07:49:51 | 528 | - | Niet ingesteld | 6B2AC3EFE5 | |
| 5555 | 100-066XAB-S5 | Engine Start | 21-08-2024 07:42:23 | 649 | - | Niet ingesteld | 2592AF28B3D | |
| 5554 | 200-040 XASI | Engine Start | 21-08-2024 07:41:06 | 4029 | - | Niet ingesteld | 6F2C5318A9 | |
| 5553 | 100-040 AI | Engine Start | 21-08-2024 07:25:33 | 5387 | - | Niet ingesteld | 259289F36CA | |
| 5552 | 60-039A | Battery Voltage | 21-08-2024 07:20:40 | 1718 | - | Niet ingesteld | 2592996E7DD | |
| 5551 | 60-048XA-S5 | Engine Start | 21-08-2024 07:19:10 | 351 | - | Niet ingesteld | 25A2A75278B | |
| 5549 | 60-053XA-S5 | Fuel Monitor Event Start Fill 98% | 21-08-2024 07:16:32 | 639 | - | Niet ingesteld | 25A2A75249A | |
| 5550 | 60-039A | Engine Stopped | 21-08-2024 07:16:25 | 1718 | - | Niet ingesteld | 2592996E7DD | |
| 5548 | 60-053XA-S5 | Fuel Monitor Event End Fill 99% | 21-08-2024 07:14:23 | 639 | - | Niet ingesteld | 25A2A75249A | |
| 5547 | 100-072XASB-S5 | Engine Stopped | 21-08-2024 07:13:22 | 544 | - | Niet ingesteld | 6F2AC3F7D8 | |
| 5545 | 100-072XASB-S5 | Engine Start | 21-08-2024 07:12:32 | 544 | - | Niet ingesteld | 6F2AC3F7D8 | |
| 5546 | 60-053XA-S5 | Fuel Monitor Event Start Fill 98% | 21-08-2024 07:12:23 | 639 | - | Niet ingesteld | 25A2A75249A |